Airfield :
LOGIN :

Register | Disclaimer

   EN    FR    IT 

 










Legend :    VFR   Marginal VFR   IFR   Intensive IFR   Very Intensive IFR
Visi :
Ceiling :
>= 8 km
>= 3000ft
5 to 8 km
1000 to 3000 ft
1500m to 5 km
500 to 1000 ft
800 to 1500m
200 to 500 ft
< 800m
< 200 ft
Symbols :   Thunderstorms  Fog  Heavy snow  Heavy precipitations  Wind > 20 kt
SIGMETs :     Misc.  Thunderstorms  Icing  Turbulence  Mountain Waves  Volcanic Ashes






- Airport Elevation : 400 ft
- IATA code : BNX


LQBK - Banja Luka

CURRENT METAR :
  • 291030Z VRB02KT 6000 BKN013 11/10 Q1017 BECMG NSC

EXPIRED METARs :
  • 291000Z VRB02KT 5000 BR BKN010 10/10 Q1018 BECMG 7000 NSW
  • 290930Z 35003KT 310V020 4500 BR BKN008 10/10 Q1018 BECMG 6000 NSW BKN012
  • 290900Z VRB02KT 3500 BR SCT005 BKN008 09/09 Q1018 NOSIG
  • 290830Z VRB02KT 2500 -DZ BR SCT003 BKN007 08/08 Q1018 BECMG 4000 BKN012
  • 290800Z 01004KT 1800 R16/1900D -DZ BR BKN003 08/08 Q1018 NOSIG
  • 290730Z 36003KT 2000 BR SCT003 BKN007 08/08 Q1018 NOSIG
  • 290700Z 34003KT 2200 -RA BR SCT006 BKN043 08/08 Q1018 NOSIG
  • 290630Z 34003KT 2500 -RA BR BKN043 07/07 Q1018 NOSIG
  • 290600Z 34004KT 3500 -RA BR SCT045 07/07 Q1018 NOSIG

TAF AMD TAF LQBK
Valid from the 29 at 07:00 until the 01 at 06:00 UTC


290738Z 2907/0106 33005KT 9999 SCT045 TX14/2913Z TN05/0106Z
PROB40
TEMPO 2907/2910 2000 -RA BR BKN004 BKN035
TEMPO 0102/0106 2000 -RA BR BKN007 OVC030



MET'MAP, your aeronautical weather chart ! - Copyright ORBIFLY December 2007 - Disclaimer

ORBIFLY MET'MAP TEAM :

Programming & Development : Alexandra Zaïnal
Original concept : Baudouin d'Aumeries
Technical & hardware support : Manuel Goepfert
Assistance : Marc-Olivier Méhu




SOURCES & CREDITS :

   NOAA